Queen Isabella — A8IE2 — position and weather

sailwx.info

Track history (hours):
 
Tides and Currents Weather Stations Pressure Air Temp Water Temp Dewpoint Dewpoint Depression Visibility Wind Speed Wind Dir Waves Ship Positions

Queen Isabella

Last reported at 2014-Sep-13 21:25 UTC. Time now 2014-Sep-18 19:52 UTC.
Position N 36°28' W 007°14'.

Length 131 m; draft 6.9 m.

Type: Ship. MMSI: 636090959.

Date/timePositionNaut miles runAvg speedWind from/ knotsBaromVisibWave heightAir tempDewpointWater temp
2014-Sep-13 21:25N 36°28' W 007°14'1214.3
2014-Sep-13 20:33N 36°39' W 007°08'  
2014-Sep-10 23:27N 37°20' W 000°57'1212.8
2014-Sep-10 22:33N 37°28' W 000°45'1313.1
2014-Sep-10 21:33N 37°36' W 000°33'1312.8
2014-Sep-10 20:31N 37°48' W 000°24'1212.5
2014-Sep-10 19:31N 37°58' W 000°16'1212.5
2014-Sep-10 18:33N 38°08' W 000°07'1312.6
2014-Sep-10 17:33N 38°18' E 000°02'1412.7
2014-Sep-10 16:27N 38°30' E 000°12'6011.4
2014-Sep-10 11:10N 39°29' W 000°06'812.0
2014-Sep-10 10:29N 39°36' W 000°11'1 0.0
2014-Sep-09 05:26N 39°36' W 000°10'11812.8
2014-Sep-08 20:15N 37°40' E 000°10'913.6
2014-Sep-08 19:33N 37°30' E 000°08'1413.8
2014-Sep-08 18:33N 37°17' E 000°05'1414.2
2014-Sep-08 17:33N 37°03' E 000°02'1514.4
2014-Sep-08 16:33N 36°49' W 000°01'1414.2
2014-Sep-08 15:33N 36°35' W 000°04'2914.3
2014-Sep-08 13:32N 36°06' W 000°11'1413.9
2014-Sep-08 12:33N 35°53' W 000°14'1 0.1
2014-Sep-07 11:25N 35°54' W 000°13'5 2.6
2014-Sep-07 09:29N 35°59' W 000°14'3 1.6
2014-Sep-07 07:33N 36°01' W 000°11'2 0.5
2014-Sep-07 03:32N 35°60' W 000°09'2 0.9
2014-Sep-07 01:29N 35°58' W 000°10'1 0.5
2014-Sep-06 23:33N 35°58' W 000°11'1 0.9
2014-Sep-06 22:32N 35°59' W 000°12'1 1.3
2014-Sep-06 21:31N 35°59' W 000°14'4 2.6
2014-Sep-06 20:04N 36°03' W 000°13'0 0.6
2014-Sep-06 19:33N 36°03' W 000°13'2 1.7
2014-Sep-06 18:33N 36°02' W 000°15'7 7.3
2014-Sep-06 17:33N 35°56' W 000°10'3 3.3
2014-Sep-06 16:33N 35°54' W 000°07'2 1.5
2014-Sep-06 15:33N 35°55' W 000°08'2 1.6
2014-Sep-06 14:33N 35°57' W 000°09'4 1.8
2014-Sep-06 12:24N 35°60' W 000°13'2 1.9
2014-Sep-06 11:33N 36°00' W 000°15'7 0.2
2014-Sep-04 16:10N 36°07' W 000°14'1 1.8
2014-Sep-04 15:31N 36°07' W 000°15'1 0.0
2014-Sep-03 22:33N 36°07' W 000°16'1 0.9
2014-Sep-03 21:28N 36°07' W 000°17'  
Track history (hours):
 
Tides and Currents Weather Stations Pressure Air Temp Water Temp Dewpoint Dewpoint Depression Visibility Wind Speed Wind Dir Waves Ship Positions

Queen Isabella

Last reported at 2014-Sep-13 21:25 UTC. Time now 2014-Sep-18 19:52 UTC.
Position N 36°28' W 007°14'.

Length 131 m; draft 6.9 m.

Type: Ship. MMSI: 636090959.

Date/timePositionNaut miles runAvg speedWind from/ knotsBaromVisibWave heightAir tempDewpointWater temp
2014-Sep-13 21:25N 36°28' W 007°14'1214.3
2014-Sep-13 20:33N 36°39' W 007°08'  
2014-Sep-10 23:27N 37°20' W 000°57'1212.8
2014-Sep-10 22:33N 37°28' W 000°45'1313.1
2014-Sep-10 21:33N 37°36' W 000°33'1312.8
2014-Sep-10 20:31N 37°48' W 000°24'1212.5
2014-Sep-10 19:31N 37°58' W 000°16'1212.5
2014-Sep-10 18:33N 38°08' W 000°07'1312.6
2014-Sep-10 17:33N 38°18' E 000°02'1412.7
2014-Sep-10 16:27N 38°30' E 000°12'6011.4
2014-Sep-10 11:10N 39°29' W 000°06'812.0
2014-Sep-10 10:29N 39°36' W 000°11'1 0.0
2014-Sep-09 05:26N 39°36' W 000°10'11812.8
2014-Sep-08 20:15N 37°40' E 000°10'913.6
2014-Sep-08 19:33N 37°30' E 000°08'1413.8
2014-Sep-08 18:33N 37°17' E 000°05'1414.2
2014-Sep-08 17:33N 37°03' E 000°02'1514.4
2014-Sep-08 16:33N 36°49' W 000°01'1414.2
2014-Sep-08 15:33N 36°35' W 000°04'2914.3
2014-Sep-08 13:32N 36°06' W 000°11'1413.9
2014-Sep-08 12:33N 35°53' W 000°14'1 0.1
2014-Sep-07 11:25N 35°54' W 000°13'5 2.6
2014-Sep-07 09:29N 35°59' W 000°14'3 1.6
2014-Sep-07 07:33N 36°01' W 000°11'2 0.5
2014-Sep-07 03:32N 35°60' W 000°09'2 0.9
2014-Sep-07 01:29N 35°58' W 000°10'1 0.5
2014-Sep-06 23:33N 35°58' W 000°11'1 0.9
2014-Sep-06 22:32N 35°59' W 000°12'1 1.3
2014-Sep-06 21:31N 35°59' W 000°14'4 2.6
2014-Sep-06 20:04N 36°03' W 000°13'0 0.6
2014-Sep-06 19:33N 36°03' W 000°13'2 1.7
2014-Sep-06 18:33N 36°02' W 000°15'7 7.3
2014-Sep-06 17:33N 35°56' W 000°10'3 3.3
2014-Sep-06 16:33N 35°54' W 000°07'2 1.5
2014-Sep-06 15:33N 35°55' W 000°08'2 1.6
2014-Sep-06 14:33N 35°57' W 000°09'4 1.8
2014-Sep-06 12:24N 35°60' W 000°13'2 1.9
2014-Sep-06 11:33N 36°00' W 000°15'7 0.2
2014-Sep-04 16:10N 36°07' W 000°14'1 1.8
2014-Sep-04 15:31N 36°07' W 000°15'1 0.0
2014-Sep-03 22:33N 36°07' W 000°16'1 0.9
2014-Sep-03 21:28N 36°07' W 000°17'  

Dump ship's entire track history